Have a Safe July 4th! 

Flight Track Log - Related Links

Times and Time Zones

All times are in EDT time to prevent confusion due to time zone crossing. See the N682RW flight status page for this flight to view local times or setup timezone preferences in your user account.

Time Position Orientation Groundspeed Altitude Reporting Facility
EDT Latitude Longitude Course Direction KTS MPH feet Rate Location/Type
Fri 03:05:38 PM 42.2292 -83.3369 North 171 197 1,300  Level Cleveland Center
Fri 03:06:33 PM 42.2814 -83.3308 North 234 269 3,600 2,741 Climbing Cleveland Center
Fri 03:07:34 PM 42.3500 -83.3422 353° North 275 316 6,600 3,148 Climbing Cleveland Center
Fri 03:08:35 PM 42.3747 -83.4361 290° West 269 310 10,000 2,170 Climbing Cleveland Center
Fri 03:09:08 PM 42.3753 -83.4981 271° West 282 325 10,000 129 Level Cleveland Center
Fri 03:10:08 PM 42.3764 -83.6133 271° West 323 372 10,200 1,350 Climbing Cleveland Center
Fri 03:11:08 PM 42.3503 -83.7383 254° West 334 384 12,700 2,950 Climbing Cleveland Center
Fri 03:12:08 PM 42.3239 -83.8636 254° West 344 396 16,100 2,850 Climbing Cleveland Center
Fri 03:13:08 PM 42.2703 -83.9786 238° Southwest 351 404 18,400 1,950 Climbing Cleveland Center
Fri 03:14:08 PM 42.2081 -84.1128 238° Southwest 378 435 20,000 800 Climbing Cleveland Center
Fri 03:15:08 PM 42.1519 -84.2356 238° Southwest 383 441 20,000  Level Cleveland Center
Fri 03:16:08 PM 42.1069 -84.3422 240° Southwest 378 435 20,000  Level Cleveland Center
Fri 03:17:08 PM 42.0528 -84.4622 239° Southwest 373 429 20,000  Level Cleveland Center
Fri 03:18:08 PM 41.9964 -84.5844 238° Southwest 373 429 20,000  Level Cleveland Center
Fri 03:20:24 PM 41.8714 -84.8528 238° Southwest 383 441 20,000  Level Chicago Center
Fri 03:21:26 PM 41.8150 -84.9739 238° Southwest 383 441 20,000  Level Chicago Center
Fri 03:22:28 PM 41.7483 -85.1192 238° Southwest 383 441 20,000  Level Chicago Center
Fri 03:23:30 PM 41.6911 -85.2419 238° Southwest 387 445 20,000  Level Chicago Center
Fri 03:24:32 PM 41.6300 -85.3725 238° Southwest 390 449 20,000 -48 Level Chicago Center
Fri 03:25:35 PM 41.5675 -85.5047 238° Southwest 400 460 19,900 -480 Descending Chicago Center
Fri 03:26:37 PM 41.5619 -85.6483 267° West 393 452 19,000 -1,065 Descending Chicago Center
Fri 03:27:39 PM 41.5628 -85.7947 270° West 393 452 17,700 -1,694 Descending Chicago Center
Fri 03:28:41 PM 41.5531 -85.9333 265° West 379 436 15,500 -2,323 Descending Chicago Center
Fri 03:29:43 PM 41.5442 -86.0711 265° West 374 430 12,900 -2,274 Descending Chicago Center
Fri 03:30:45 PM 41.5339 -86.2306 265° West 361 415 10,800 -1,403 Descending Chicago Center
Fri 03:31:47 PM 41.5247 -86.3608 265° West 354 407 10,000 -387 Descending Chicago Center
Fri 03:32:49 PM 41.5217 -86.4917 268° West 354 407 10,000  Level Chicago Center
Fri 03:33:51 PM 41.5217 -86.6242 270° West 357 411 10,000  Level Chicago Center
Fri 03:34:53 PM 41.5206 -86.7700 269° West 354 407 10,000 -576 Level Chicago Center
Fri 03:35:56 PM 41.5200 -86.8806 270° West 303 349 8,800 -1,296 Descending Chicago Center
Fri 03:36:58 PM 41.5172 -86.9892 268° West 295 339 7,300 -1,258 Descending Chicago Center
Fri 03:38:00 PM 41.5172 -87.0928 270° West 284 327 6,200 -629 Descending Chicago Center
Fri 03:39:02 PM 41.5153 -87.2147 269° West 277 319 6,000 -378 Descending Chicago Center
Fri 03:40:07 PM 41.5167 -87.3333 271° West 280 322 5,400 -480 Descending Chicago TRACON
Fri 03:41:07 PM 41.5131 -87.4197 267° West 277 319 5,000 -198 Descending Chicago Center
Fri 03:42:08 PM 41.5111 -87.5186 269° West 273 314 5,000 -341 Level Chicago Center
Fri 03:43:10 PM 41.5219 -87.6000 280° West 242 278 4,300 -484 Descending Chicago Center
Fri 03:44:12 PM 41.5353 -87.6944 281° West 227 261 4,000 -144 Descending Chicago Center
Fri 03:45:15 PM 41.5639 -87.7514 304° West 204 235 4,000 -384 Level Chicago Center
Fri 03:46:17 PM 41.5897 -87.8142 299° West 198 228 3,200 -726 Descending Chicago Center
Fri 03:47:19 PM 41.6136 -87.8744 298° West 192 221 2,500 -339 Descending Chicago Center
Fri 03:48:21 PM 41.6411 -87.9278 305° West 193 222 2,500  Level Chicago Center
Fri 03:49:23 PM 41.6803 -87.8819 41° Northeast 174 200 2,500  Level Chicago Center
Fri 03:49:56 PM 41.7000 -87.8500 50° Northeast 169 194 2,500 -387 Level Chicago TRACON
Fri 03:50:56 PM 41.7333 -87.8167 37° Northeast 146 168 1,900 -650 Descending Chicago TRACON
Fri 03:51:56 PM 41.7667 -87.7833 37° Northeast 138 159 1,200 -700 Descending Chicago TRACON
Fri 03:54:00 PM 41.7833 -87.7500 25° Northeast  Level FlightAware Approximate

Login

Don't have an account? Register now (free) for customized features, flight alerts, and more!